Time;durP1;ratioP1;P1;durP2;ratioP2;P2;SDS_P1;SDS_P2;PMS_P1;PMS_P2;Temp;Humidity;BMP_temperature;BMP_pressure;BME280_temperature;BME280_humidity;BME280_pressure;Samples;Min_cycle;Max_cycle;Signal;HPM_P1;HPM_P2
2021/12/31 00:00:24;;;;;;;10.25;7.97;;;;;;;10.44;65.25;100838.59;5012595;28;20028;-74
2021/12/31 00:02:50;;;;;;;9.73;7.82;;;;;;;10.58;65.12;100858.53;5012317;28;20029;-74
2021/12/31 00:05:15;;;;;;;7.03;5.65;;;;;;;10.47;65.80;100849.81;5012962;28;20026;-74
2021/12/31 00:07:45;;;;;;;7.50;5.53;;;;;;;10.77;63.62;100854.38;5012546;28;20424;-74
2021/12/31 00:10:11;;;;;;;8.20;5.70;;;;;;;10.80;62.40;100853.66;5013746;28;20060;-74
2021/12/31 00:12:43;;;;;;;13.23;8.63;;;;;;;10.71;64.17;100846.25;5012462;28;20030;-74
2021/12/31 00:15:12;;;;;;;15.07;9.27;;;;;;;10.68;64.51;100854.47;5012436;28;20464;-74
2021/12/31 00:17:39;;;;;;;13.60;7.90;;;;;;;10.62;65.10;100859.47;5012394;28;20026;-74
2021/12/31 00:20:13;;;;;;;21.98;15.48;;;;;;;10.59;64.79;100845.41;5012432;28;20014;-74
2021/12/31 00:25:05;;;;;;;15.60;10.48;;;;;;;10.38;64.56;100851.88;5013517;28;19959;-74
2021/12/31 00:27:33;;;;;;;11.43;9.30;;;;;;;10.33;64.91;100846.53;5013004;28;20032;-74
2021/12/31 00:30:01;;;;;;;8.65;6.65;;;;;;;10.48;63.75;100854.22;5012778;28;20048;-75
2021/12/31 00:32:31;;;;;;;9.80;7.50;;;;;;;10.32;64.42;100833.78;5012310;28;20018;-74
2021/12/31 00:34:57;;;;;;;10.07;6.93;;;;;;;10.35;64.66;100841.47;5012630;28;20487;-75
2021/12/31 00:37:28;;;;;;;7.45;6.57;;;;;;;10.37;65.13;100858.59;5016352;28;20049;-75
2021/12/31 00:39:56;;;;;;;7.13;5.93;;;;;;;10.27;65.39;100839.56;5015859;28;20475;-74
2021/12/31 00:42:25;;;;;;;7.82;6.85;;;;;;;10.34;65.30;100856.53;5015924;28;20029;-75
2021/12/31 00:44:51;;;;;;;10.05;7.78;;;;;;;10.26;65.40;100853.84;5016802;28;20380;-75
2021/12/31 00:47:21;;;;;;;14.10;7.80;;;;;;;10.21;65.58;100864.00;5016979;28;20091;-74
2021/12/31 00:49:47;;;;;;;10.85;6.82;;;;;;;10.31;66.02;100840.53;5016093;28;20061;-74
2021/12/31 00:52:15;;;;;;;8.35;5.43;;;;;;;10.35;65.62;100847.03;5015519;28;20472;-74
2021/12/31 00:54:44;;;;;;;7.60;5.82;;;;;;;10.33;64.79;100842.94;5017121;28;20036;-74
2021/12/31 00:57:10;;;;;;;9.52;7.15;;;;;;;10.24;66.34;100845.84;5015553;28;20022;-75
2021/12/31 00:59:36;;;;;;;6.78;5.90;;;;;;;10.31;65.66;100846.09;5016542;28;20105;-74
2021/12/31 01:02:07;;;;;;;7.97;4.57;;;;;;;10.30;65.06;100860.34;5015683;28;20099;-75
2021/12/31 01:04:33;;;;;;;7.78;5.25;;;;;;;10.00;65.43;100821.53;5015072;28;20136;-74
2021/12/31 01:07:01;;;;;;;6.53;4.00;;;;;;;10.17;64.20;100804.69;5016967;28;20081;-74
2021/12/31 01:09:28;;;;;;;9.27;4.40;;;;;;;10.46;63.63;100853.75;5015615;28;20026;-74
2021/12/31 01:11:55;;;;;;;5.85;3.95;;;;;;;10.37;63.91;100853.03;5015536;28;20026;-73
2021/12/31 01:14:34;;;;;;;5.32;3.55;;;;;;;10.54;63.00;100867.91;5015506;28;20045;-75
2021/12/31 01:17:06;;;;;;;4.03;3.10;;;;;;;10.54;63.01;100876.25;5015752;28;20445;-74
2021/12/31 01:19:45;;;;;;;5.65;4.05;;;;;;;10.49;63.05;100877.28;5015358;28;20032;-74
2021/12/31 01:22:25;;;;;;;4.90;3.22;;;;;;;10.60;63.73;100880.44;5015584;28;20033;-74
2021/12/31 01:24:51;;;;;;;4.75;3.30;;;;;;;10.46;63.54;100881.59;5016089;28;20018;-74
2021/12/31 01:27:20;;;;;;;3.28;2.88;;;;;;;10.58;62.80;100879.97;5014765;28;20022;-74
2021/12/31 01:29:45;;;;;;;4.72;3.78;;;;;;;10.72;62.58;100895.19;5015763;28;20408;-74
2021/12/31 01:32:11;;;;;;;3.78;3.15;;;;;;;10.70;62.77;100891.09;5014895;28;20029;-74
2021/12/31 01:34:38;;;;;;;3.47;3.03;;;;;;;10.71;62.36;100876.06;5014779;28;20029;-74
2021/12/31 01:37:04;;;;;;;4.65;3.20;;;;;;;10.79;62.18;100897.38;5015427;28;20430;-73
2021/12/31 01:39:29;;;;;;;2.65;2.45;;;;;;;10.74;62.24;100905.97;5016384;28;20214;-74
2021/12/31 01:41:59;;;;;;;2.60;2.40;;;;;;;10.85;61.37;100892.41;5014690;28;20034;-74
2021/12/31 01:44:35;;;;;;;3.05;2.42;;;;;;;10.78;61.03;100901.34;5014964;28;20034;-74
2021/12/31 01:47:05;;;;;;;3.15;2.28;;;;;;;10.92;61.85;100901.81;5013917;28;20014;-74
2021/12/31 01:49:36;;;;;;;2.70;2.50;;;;;;;10.98;61.17;100902.41;5014965;28;20025;-73
2021/12/31 01:52:04;;;;;;;2.78;1.98;;;;;;;10.97;61.01;100907.16;5014707;28;20026;-74
2021/12/31 01:54:34;;;;;;;2.22;1.88;;;;;;;11.20;59.88;100898.31;5014687;28;20065;-73
2021/12/31 01:57:05;;;;;;;2.55;2.00;;;;;;;11.24;59.59;100893.69;5015291;28;20022;-74
2021/12/31 01:59:36;;;;;;;2.80;2.10;;;;;;;11.25;59.68;100900.88;5014794;28;20425;-74
2021/12/31 02:02:05;;;;;;;2.25;2.05;;;;;;;11.18;59.05;100890.28;5014595;28;20026;-74
2021/12/31 02:04:33;;;;;;;1.90;1.80;;;;;;;11.09;59.27;100880.47;5015984;28;20492;-74
2021/12/31 02:07:00;;;;;;;3.22;2.70;;;;;;;11.31;59.93;100896.69;5017980;28;20109;-74
2021/12/31 02:09:28;;;;;;;4.75;2.58;;;;;;;11.31;58.04;100896.69;5015513;28;20084;-74
2021/12/31 02:11:55;;;;;;;2.38;2.17;;;;;;;11.25;59.60;100884.16;5014440;28;20030;-73
2021/12/31 02:14:27;;;;;;;3.80;2.38;;;;;;;11.19;59.85;100871.63;5015950;28;20052;-74
2021/12/31 02:16:52;;;;;;;4.45;2.10;;;;;;;11.17;59.38;100888.69;5014092;28;20024;-74
2021/12/31 02:19:26;;;;;;;3.80;1.80;;;;;;;11.12;58.81;100885.31;5014361;28;20029;-74
2021/12/31 02:21:53;;;;;;;1.75;1.60;;;;;;;11.29;58.28;100876.69;5015281;28;20412;-74
2021/12/31 02:24:22;;;;;;;2.10;1.52;;;;;;;11.30;58.08;100886.69;5014981;28;20381;-74
2021/12/31 02:26:51;;;;;;;3.75;2.35;;;;;;;11.14;58.65;100867.09;5013834;28;20460;-75
2021/12/31 02:29:24;;;;;;;3.50;2.05;;;;;;;11.17;58.20;100877.53;5015465;28;20030;-74
2021/12/31 02:31:53;;;;;;;4.80;3.08;;;;;;;11.15;58.90;100885.44;5013940;28;20026;-73
2021/12/31 02:34:19;;;;;;;3.83;2.25;;;;;;;11.01;59.69;100874.66;5014063;28;20380;-74
2021/12/31 02:36:48;;;;;;;2.28;1.40;;;;;;;11.20;59.40;100878.81;5013829;28;20036;-73
2021/12/31 02:39:16;;;;;;;3.42;2.17;;;;;;;11.16;59.53;100883.47;5015435;28;20069;-74
2021/12/31 02:41:44;;;;;;;1.55;1.45;;;;;;;11.14;59.44;100889.41;5014165;28;20099;-75
2021/12/31 02:44:09;;;;;;;1.95;1.63;;;;;;;11.19;58.74;100903.09;5013814;28;20376;-74
2021/12/31 02:46:35;;;;;;;2.00;1.80;;;;;;;11.20;58.21;100893.56;5013477;28;20028;-74
2021/12/31 02:49:00;;;;;;;2.15;1.80;;;;;;;11.18;58.39;100875.56;5013542;28;20032;-74
2021/12/31 02:51:27;;;;;;;1.83;1.48;;;;;;;11.18;59.00;100892.28;5013391;28;20022;-73
2021/12/31 02:53:55;;;;;;;2.83;1.85;;;;;;;11.07;59.33;100902.25;5013350;28;20080;-73
2021/12/31 02:56:21;;;;;;;2.38;1.60;;;;;;;11.09;59.68;100891.59;5013912;28;20457;-73
2021/12/31 02:58:47;;;;;;;1.10;1.10;;;;;;;11.00;59.57;100892.53;5014036;28;20022;-74
2021/12/31 03:01:13;;;;;;;5.00;1.77;;;;;;;11.07;59.25;100878.00;5015040;28;20068;-73
2021/12/31 03:03:41;;;;;;;1.42;1.33;;;;;;;10.99;59.14;100882.53;5014332;28;20037;-76
2021/12/31 03:06:28;;;;;;;1.38;1.27;;;;;;;11.11;59.06;100873.38;5031635;28;20030;-76
2021/12/31 03:08:56;;;;;;;1.83;1.63;;;;;;;11.13;58.16;100886.94;5015215;28;20542;-76
2021/12/31 03:11:26;;;;;;;1.30;1.20;;;;;;;11.16;57.78;100887.06;5014985;28;20023;-76
2021/12/31 03:13:54;;;;;;;1.27;1.17;;;;;;;11.02;58.63;100859.59;5014767;28;20034;-76
2021/12/31 03:16:23;;;;;;;2.67;1.83;;;;;;;11.52;57.55;100886.19;5014487;28;20026;-76
2021/12/31 03:18:54;;;;;;;1.35;1.25;;;;;;;11.78;54.71;100879.38;5013856;28;20029;-75
2021/12/31 03:21:23;;;;;;;5.78;2.85;;;;;;;11.66;55.76;100893.34;5016167;28;20095;-76
2021/12/31 03:23:54;;;;;;;42.63;17.90;;;;;;;11.49;56.69;100906.38;5014848;28;20120;-76
2021/12/31 03:26:21;;;;;;;5.82;3.58;;;;;;;11.64;55.27;100906.81;5013348;28;20104;-73
2021/12/31 03:28:49;;;;;;;7.45;4.20;;;;;;;11.62;55.68;100903.59;5014363;28;20025;-76
2021/12/31 03:31:15;;;;;;;9.00;4.80;;;;;;;11.59;55.95;100909.84;4998823;28;20030;-76
2021/12/31 03:33:43;;;;;;;10.70;6.72;;;;;;;11.51;56.12;100918.00;5015441;28;20029;-75
2021/12/31 03:36:09;;;;;;;39.40;21.38;;;;;;;11.27;57.40;100898.53;5016432;28;20095;-76
2021/12/31 03:38:39;;;;;;;18.45;11.80;;;;;;;11.24;58.36;100904.81;5014683;28;20461;-76
2021/12/31 03:41:05;;;;;;;10.45;6.10;;;;;;;11.24;58.92;100913.19;5014515;28;20120;-76
2021/12/31 03:43:33;;;;;;;12.57;7.03;;;;;;;11.11;59.08;100906.78;5014929;28;20053;-76
2021/12/31 03:46:01;;;;;;;8.13;5.38;;;;;;;10.99;59.25;100909.59;5014193;28;20532;-76
2021/12/31 03:48:27;;;;;;;5.68;3.80;;;;;;;10.87;59.61;100902.03;5014669;28;20022;-76
2021/12/31 03:50:58;;;;;;;6.78;3.38;;;;;;;10.86;60.25;100924.66;5014527;28;20025;-76
2021/12/31 03:53:24;;;;;;;3.55;2.70;;;;;;;10.78;60.13;100914.44;5014945;28;20479;-76
2021/12/31 03:55:49;;;;;;;4.07;3.00;;;;;;;10.67;60.24;100900.16;5016500;28;20033;-76
2021/12/31 03:58:15;;;;;;;8.52;4.88;;;;;;;10.75;60.72;100908.41;5014696;28;20030;-76
2021/12/31 04:00:45;;;;;;;14.50;8.60;;;;;;;10.44;61.29;100875.56;5015322;28;20404;-76
2021/12/31 04:03:12;;;;;;;14.88;10.55;;;;;;;10.62;61.60;100901.19;5015533;28;20069;-76
2021/12/31 04:05:40;;;;;;;16.08;10.48;;;;;;;10.48;61.74;100900.72;5015379;28;20101;-76
2021/12/31 04:08:06;;;;;;;41.78;29.85;;;;;;;10.57;62.06;100918.13;5014195;28;20064;-76
2021/12/31 04:10:34;;;;;;;16.17;12.20;;;;;;;10.59;62.43;100923.34;5015569;28;20022;-76
2021/12/31 04:12:59;;;;;;;12.75;10.82;;;;;;;10.52;62.34;100934.22;5018969;28;20030;-76
2021/12/31 04:15:25;;;;;;;13.82;12.32;;;;;;;10.24;62.84;100884.78;5018086;28;20368;-75
2021/12/31 04:17:54;;;;;;;15.50;12.05;;;;;;;10.38;63.32;100913.09;5020458;28;20026;-74
2021/12/31 04:20:32;;;;;;;11.23;9.40;;;;;;;10.38;63.95;100909.50;5018579;28;20022;-76
2021/12/31 04:23:02;;;;;;;8.75;7.05;;;;;;;10.31;64.16;100918.41;5018387;28;20022;-76
2021/12/31 04:25:28;;;;;;;4.15;3.60;;;;;;;10.22;63.74;100910.09;5019378;28;20500;-76
2021/12/31 04:27:53;;;;;;;5.80;3.00;;;;;;;10.24;63.86;100907.03;5018106;28;20026;-76
2021/12/31 04:30:19;;;;;;;3.90;2.97;;;;;;;10.25;64.31;100908.66;5018340;28;20022;-75
2021/12/31 04:32:45;;;;;;;3.95;2.88;;;;;;;10.41;63.82;100914.38;5018313;28;20064;-76
2021/12/31 04:35:12;;;;;;;1.73;1.52;;;;;;;10.23;63.52;100909.00;5019772;28;20085;-76
2021/12/31 04:37:43;;;;;;;2.00;1.90;;;;;;;10.28;63.87;100913.53;5004944;28;20041;-76
2021/12/31 04:40:11;;;;;;;3.17;1.95;;;;;;;10.20;63.69;100906.88;5016760;28;20024;-76
2021/12/31 04:42:40;;;;;;;1.77;1.67;;;;;;;10.20;63.90;100917.19;5016507;28;20033;-76
2021/12/31 04:45:09;;;;;;;2.17;1.95;;;;;;;10.23;63.30;100922.91;5017907;28;20522;-76
2021/12/31 04:47:35;;;;;;;2.70;2.50;;;;;;;10.19;63.94;100929.47;5016895;28;20420;-76
2021/12/31 04:50:00;;;;;;;2.88;2.08;;;;;;;10.27;63.90;100938.91;5018096;28;20045;-75
2021/12/31 04:52:26;;;;;;;4.28;2.47;;;;;;;10.39;62.28;100923.06;5016975;28;20092;-75
2021/12/31 04:54:54;;;;;;;3.08;2.45;;;;;;;10.40;62.21;100944.16;5015923;28;20431;-75
2021/12/31 04:57:24;;;;;;;3.08;2.55;;;;;;;10.45;62.34;100955.09;5016642;28;20034;-75
2021/12/31 04:59:50;;;;;;;2.63;2.13;;;;;;;10.55;61.44;100950.25;5016285;28;20034;-75
2021/12/31 05:02:15;;;;;;;2.92;1.95;;;;;;;10.69;60.94;100953.50;5016499;28;20116;-75
2021/12/31 05:04:46;;;;;;;2.03;1.83;;;;;;;10.47;61.12;100949.16;5016237;28;20045;-75
2021/12/31 05:07:14;;;;;;;2.53;1.52;;;;;;;10.53;60.23;100955.31;5018014;28;20032;-75
2021/12/31 05:09:44;;;;;;;1.27;1.13;;;;;;;10.45;60.45;100934.78;5016656;28;20039;-75
2021/12/31 05:12:17;;;;;;;1.55;1.45;;;;;;;10.67;59.93;100969.75;5016472;28;20026;-75
2021/12/31 05:14:45;;;;;;;1.77;1.40;;;;;;;10.57;60.44;100959.06;5017933;28;20022;-75
2021/12/31 05:17:14;;;;;;;1.50;1.40;;;;;;;10.59;60.32;100965.88;5015888;28;20022;-76
2021/12/31 05:19:44;;;;;;;1.67;1.50;;;;;;;10.57;59.94;100965.44;5016802;28;20028;-76
2021/12/31 05:22:13;;;;;;;3.55;1.23;;;;;;;10.55;60.35;100967.75;5015553;28;20033;-76
2021/12/31 05:24:40;;;;;;;2.58;1.60;;;;;;;10.46;61.31;100953.13;5016820;28;20033;-75
2021/12/31 05:27:09;;;;;;;1.63;1.30;;;;;;;10.38;61.79;100956.78;5017611;28;20441;-75
2021/12/31 05:29:35;;;;;;;1.40;1.30;;;;;;;10.55;61.00;100976.09;5015728;28;20116;-75
2021/12/31 05:32:04;;;;;;;1.60;1.50;;;;;;;10.56;61.02;100976.91;5015220;28;20116;-76
2021/12/31 05:34:33;;;;;;;1.60;1.17;;;;;;;10.52;61.40;100984.31;5017026;28;20452;-75
2021/12/31 05:36:59;;;;;;;1.05;0.93;;;;;;;10.47;61.83;100982.56;5016413;28;20408;-76
2021/12/31 05:39:27;;;;;;;1.35;1.17;;;;;;;10.46;61.07;100967.84;5016226;28;20033;-75
2021/12/31 05:41:53;;;;;;;2.13;1.42;;;;;;;10.37;60.46;100961.53;5017711;28;20034;-76
2021/12/31 05:44:24;;;;;;;1.85;1.63;;;;;;;10.43;60.32;100981.59;5016604;28;20112;-76
2021/12/31 05:46:52;;;;;;;2.67;1.60;;;;;;;10.50;61.32;100973.53;5017311;28;20457;-76
2021/12/31 05:49:18;;;;;;;1.48;1.25;;;;;;;10.38;61.48;100968.72;5016639;28;20025;-76
2021/12/31 05:51:43;;;;;;;1.20;1.10;;;;;;;10.40;62.09;100974.78;5016172;28;20078;-75
2021/12/31 05:54:11;;;;;;;3.05;1.42;;;;;;;10.37;61.41;100966.28;5017041;28;20033;-76
2021/12/31 05:56:44;;;;;;;1.88;1.70;;;;;;;10.44;61.55;100994.38;5016063;28;20452;-75
2021/12/31 05:59:10;;;;;;;1.88;1.63;;;;;;;10.41;60.89;100984.75;5015382;28;20144;-76
2021/12/31 06:01:38;;;;;;;3.45;2.88;;;;;;;10.26;60.41;100951.19;5014389;28;20105;-76
2021/12/31 06:04:04;;;;;;;4.18;3.00;;;;;;;10.37;60.44;100977.41;5017590;28;20494;-75
2021/12/31 06:06:29;;;;;;;3.47;2.60;;;;;;;10.40;60.94;100988.69;5016359;28;20130;-76
2021/12/31 06:08:55;;;;;;;3.95;3.00;;;;;;;10.46;60.21;100986.50;5016231;28;20029;-76
2021/12/31 06:11:21;;;;;;;5.10;2.90;;;;;;;10.47;60.78;100996.47;5017202;28;20060;-75
2021/12/31 06:13:53;;;;;;;5.32;2.90;;;;;;;10.54;62.69;101004.25;5031247;28;20156;-75
2021/12/31 06:16:19;;;;;;;7.40;2.53;;;;;;;10.34;64.36;100990.06;5013990;28;20108;-75
2021/12/31 06:18:47;;;;;;;4.45;2.70;;;;;;;10.36;64.24;101001.63;5014211;28;20046;-74
2021/12/31 06:21:12;;;;;;;6.35;2.75;;;;;;;10.28;65.07;101008.13;5014814;28;20022;-75
2021/12/31 06:23:41;;;;;;;5.00;2.65;;;;;;;10.27;64.27;100995.34;5014164;28;20354;-75
2021/12/31 06:26:06;;;;;;;2.53;2.33;;;;;;;10.26;62.92;100998.47;5014863;28;20357;-74
2021/12/31 06:28:32;;;;;;;1.85;1.63;;;;;;;10.31;61.72;101006.59;5014324;28;20030;-75
2021/12/31 06:31:00;;;;;;;1.63;1.40;;;;;;;10.27;60.05;100988.97;5014308;28;20022;-74
2021/12/31 06:33:28;;;;;;;3.22;2.10;;;;;;;10.47;60.54;101016.75;5013738;28;20461;-74
2021/12/31 06:35:54;;;;;;;3.25;2.95;;;;;;;10.46;61.80;101017.09;5015986;28;20026;-74
2021/12/31 06:38:20;;;;;;;3.97;3.00;;;;;;;10.62;62.36;101022.84;5014772;28;20558;-74
2021/12/31 06:40:48;;;;;;;7.68;5.15;;;;;;;11.06;61.55;101020.38;5014936;28;20084;-75
2021/12/31 06:43:16;;;;;;;25.23;19.38;;;;;;;11.78;59.93;101036.31;5014774;28;20129;-75
2021/12/31 06:45:41;;;;;;;58.63;45.00;;;;;;;12.39;57.84;101032.59;5015546;28;20498;-74
2021/12/31 06:48:07;;;;;;;89.97;65.50;;;;;;;12.81;55.09;101021.00;5015173;28;20120;-74
2021/12/31 06:50:33;;;;;;;84.05;57.10;;;;;;;13.18;52.87;101017.97;5016574;28;20022;-75
2021/12/31 06:53:01;;;;;;;25.55;22.80;;;;;;;13.52;52.22;101028.44;5016691;28;20021;-74
2021/12/31 06:55:26;;;;;;;21.95;15.40;;;;;;;13.97;51.69;101029.91;5016000;28;20048;-74
2021/12/31 06:57:54;;;;;;;12.90;10.88;;;;;;;14.34;50.27;101035.91;5013568;28;20457;-74
2021/12/31 07:00:20;;;;;;;11.27;9.35;;;;;;;14.76;49.67;101028.78;5014799;28;20084;-74
2021/12/31 07:02:48;;;;;;;11.50;9.35;;;;;;;15.15;48.58;101044.31;5013867;28;20025;-74
2021/12/31 07:05:14;;;;;;;10.63;8.88;;;;;;;15.49;47.43;101044.47;5015260;28;20521;-74
2021/12/31 07:07:41;;;;;;;8.05;7.25;;;;;;;15.85;46.13;101047.88;5016548;28;20064;-74
2021/12/31 07:10:07;;;;;;;9.60;8.07;;;;;;;16.29;45.91;101052.91;5015385;28;20030;-74
2021/12/31 07:12:33;;;;;;;8.85;7.68;;;;;;;16.79;44.05;101048.75;5013841;28;20044;-74
2021/12/31 07:15:01;;;;;;;14.75;7.22;;;;;;;17.20;42.15;101057.19;5013069;28;20022;-74
2021/12/31 07:17:29;;;;;;;10.02;7.25;;;;;;;17.35;42.19;101052.53;5013150;28;20029;-74
2021/12/31 07:19:56;;;;;;;13.60;7.63;;;;;;;17.83;41.67;101066.59;5012784;28;20026;-74
2021/12/31 07:22:21;;;;;;;13.23;8.07;;;;;;;18.06;40.87;101055.94;5013359;28;20115;-74
2021/12/31 07:24:47;;;;;;;12.52;7.90;;;;;;;18.53;40.36;101065.41;5012629;28;20057;-74
2021/12/31 07:27:12;;;;;;;9.15;7.28;;;;;;;18.89;39.78;101066.38;5012186;28;20030;-74
2021/12/31 07:29:38;;;;;;;10.25;6.93;;;;;;;19.09;38.06;101061.19;5012298;28;20113;-74
2021/12/31 07:32:04;;;;;;;13.65;6.72;;;;;;;19.32;38.00;101072.09;5012794;28;20057;-74
2021/12/31 07:34:29;;;;;;;10.30;6.43;;;;;;;19.74;38.05;101062.88;5012390;28;20369;-74
2021/12/31 07:36:55;;;;;;;5.88;4.38;;;;;;;20.03;35.31;101066.47;5012190;28;20510;-74
2021/12/31 07:39:24;;;;;;;4.25;3.28;;;;;;;20.26;34.25;101073.69;5012488;28;20030;-74
2021/12/31 07:41:50;;;;;;;12.00;9.05;;;;;;;20.57;34.64;101072.00;5012607;28;20049;-74
2021/12/31 07:44:15;;;;;;;15.63;14.00;;;;;;;20.89;34.66;101071.84;5012034;28;20033;-76
2021/12/31 07:46:43;;;;;;;13.77;9.15;;;;;;;20.97;34.35;101072.59;5014765;28;20048;-75
2021/12/31 07:49:09;;;;;;;7.18;6.35;;;;;;;21.30;33.82;101069.19;5017825;28;20022;-75
2021/12/31 07:51:35;;;;;;;6.95;5.78;;;;;;;21.72;33.65;101072.91;5016440;28;20053;-73
2021/12/31 07:54:00;;;;;;;5.57;4.88;;;;;;;22.05;33.39;101074.22;5017480;28;20048;-74
2021/12/31 07:56:30;;;;;;;10.82;7.68;;;;;;;22.21;33.57;101076.50;5016093;28;20050;-75
2021/12/31 07:58:56;;;;;;;8.10;6.25;;;;;;;22.61;32.77;101074.03;5016123;28;20029;-75
2021/12/31 08:01:21;;;;;;;6.13;5.53;;;;;;;22.62;31.77;101078.47;5016273;28;20037;-75
2021/12/31 08:03:47;;;;;;;7.63;5.15;;;;;;;22.75;30.72;101074.66;5015375;28;20045;-75
2021/12/31 08:06:12;;;;;;;7.35;5.10;;;;;;;22.99;31.47;101086.91;5016084;28;20022;-75
2021/12/31 08:08:38;;;;;;;11.80;5.50;;;;;;;23.24;30.92;101088.59;5015789;28;20388;-75
2021/12/31 08:11:04;;;;;;;9.43;6.75;;;;;;;23.22;31.16;101096.72;5015948;28;20100;-75
2021/12/31 08:13:29;;;;;;;11.43;6.40;;;;;;;23.08;30.80;101100.59;5016256;28;20077;-74
2021/12/31 08:15:55;;;;;;;5.13;4.07;;;;;;;23.12;29.54;101101.34;5015003;28;20052;-75
2021/12/31 08:18:21;;;;;;;3.53;2.20;;;;;;;23.37;27.47;101100.97;5015553;28;20026;-74
2021/12/31 08:20:47;;;;;;;2.60;2.40;;;;;;;23.27;28.02;101097.03;5016044;28;20053;-74
2021/12/31 08:23:13;;;;;;;3.97;3.53;;;;;;;23.73;27.63;101106.13;5015870;28;20392;-74
2021/12/31 08:25:41;;;;;;;4.82;4.32;;;;;;;23.81;29.02;101116.13;5016636;28;20028;-74
2021/12/31 08:28:07;;;;;;;5.22;3.72;;;;;;;23.58;28.61;101116.06;5015841;28;20033;-73
2021/12/31 08:30:36;;;;;;;3.63;2.72;;;;;;;23.86;27.51;101112.78;5016018;28;20038;-74
2021/12/31 08:33:02;;;;;;;3.88;2.97;;;;;;;23.94;28.17;101122.81;5016722;28;20035;-74
2021/12/31 08:35:27;;;;;;;4.00;2.80;;;;;;;23.80;29.52;101114.50;5017578;28;20105;-73
2021/12/31 08:37:56;;;;;;;5.93;2.50;;;;;;;24.16;28.04;101122.41;5015789;28;20129;-75
2021/12/31 08:40:21;;;;;;;3.67;2.40;;;;;;;24.16;26.89;101128.09;5015565;28;20052;-76
2021/12/31 08:42:47;;;;;;;2.05;1.85;;;;;;;24.19;26.68;101132.94;5015720;28;20026;-76
2021/12/31 08:45:13;;;;;;;3.58;2.08;;;;;;;24.12;27.26;101130.19;5015412;28;20372;-76
2021/12/31 08:47:41;;;;;;;4.65;2.30;;;;;;;24.09;26.42;101126.19;5015651;28;20116;-75
2021/12/31 08:50:07;;;;;;;3.75;2.53;;;;;;;24.27;27.58;101140.09;5015923;28;20029;-75
2021/12/31 08:52:33;;;;;;;3.47;2.95;;;;;;;24.59;26.69;101130.16;5015813;28;20025;-74
2021/12/31 08:55:00;;;;;;;2.70;2.13;;;;;;;24.61;26.10;101136.22;5016143;28;20021;-74
2021/12/31 08:57:29;;;;;;;3.63;2.70;;;;;;;24.55;27.16;101133.91;5014667;28;20124;-75
2021/12/31 08:59:55;;;;;;;1.90;1.80;;;;;;;24.36;26.04;101143.22;5015052;28;20029;-75
2021/12/31 09:02:24;;;;;;;1.65;1.50;;;;;;;24.20;26.06;101145.91;5014559;28;20381;-75
2021/12/31 09:04:52;;;;;;;2.58;2.38;;;;;;;24.54;26.29;101149.34;5014051;28;20041;-79
2021/12/31 09:07:17;;;;;;;2.20;1.67;;;;;;;24.48;25.52;101145.41;5014811;28;20480;-78
2021/12/31 09:09:43;;;;;;;2.28;2.00;;;;;;;24.46;27.33;101159.25;5014935;28;20116;-77
2021/12/31 09:12:09;;;;;;;4.15;1.95;;;;;;;24.15;25.96;101160.63;5016423;28;20404;-82
2021/12/31 09:14:39;;;;;;;5.70;2.20;;;;;;;24.77;25.67;101162.72;5014983;28;20172;-84
2021/12/31 09:17:07;;;;;;;2.65;2.45;;;;;;;24.52;24.46;101171.75;5016522;28;20030;-86
2021/12/31 09:19:36;;;;;;;3.90;2.45;;;;;;;24.04;25.74;101166.50;5014880;28;20064;-86
2021/12/31 09:22:04;;;;;;;5.18;3.20;;;;;;;23.70;27.08;101152.41;5015515;28;20034;-83
2021/12/31 09:24:30;;;;;;;2.97;2.63;;;;;;;23.79;26.15;101141.31;5014988;28;20033;-86
2021/12/31 09:26:55;;;;;;;3.42;3.00;;;;;;;23.43;27.76;101158.06;5016324;28;20417;-86
2021/12/31 09:29:24;;;;;;;4.88;3.47;;;;;;;23.59;27.42;101152.56;5015643;28;20061;-86
2021/12/31 09:31:51;;;;;;;5.07;4.13;;;;;;;22.71;29.32;101167.50;5014652;28;20022;-88
2021/12/31 09:34:21;;;;;;;9.10;6.03;;;;;;;22.69;28.76;101152.94;5015205;28;20040;-87
2021/12/31 09:36:47;;;;;;;7.97;6.15;;;;;;;22.05;31.42;101170.56;5015189;28;20056;-86
2021/12/31 09:39:16;;;;;;;7.68;5.95;;;;;;;22.38;32.03;101171.91;5014614;28;20025;-86
2021/12/31 09:41:44;;;;;;;6.22;5.00;;;;;;;22.16;30.44;101167.69;5016656;28;20026;-86
2021/12/31 09:44:15;;;;;;;10.23;7.45;;;;;;;22.30;32.90;101167.53;5015435;28;20030;-88
2021/12/31 09:46:41;;;;;;;13.55;9.38;;;;;;;22.23;34.29;101168.41;5014711;28;20029;-81
2021/12/31 09:49:07;;;;;;;12.88;10.15;;;;;;;22.35;35.00;101172.75;5015551;28;20014;-80
2021/12/31 09:51:34;;;;;;;16.38;12.18;;;;;;;22.17;35.23;101174.94;5014652;28;20053;-80
2021/12/31 09:54:01;;;;;;;14.05;9.55;;;;;;;22.03;34.13;101161.66;5014100;28;20033;-80
2021/12/31 09:56:27;;;;;;;11.77;10.02;;;;;;;21.40;34.98;101161.72;5015723;28;20030;-80
2021/12/31 09:58:52;;;;;;;12.93;10.25;;;;;;;22.23;34.11;101171.25;5015289;28;20025;-80
2021/12/31 10:01:21;;;;;;;23.75;14.82;;;;;;;22.72;33.87;101163.44;5014337;28;20037;-80
2021/12/31 10:04:00;;;;;;;11.55;9.95;;;;;;;22.83;31.64;101154.00;5013714;28;20075;-80
2021/12/31 10:06:26;;;;;;;10.98;9.77;;;;;;;23.13;31.29;101153.25;5015774;28;20026;-80
2021/12/31 10:08:57;;;;;;;14.80;12.10;;;;;;;23.29;31.13;101147.75;5013736;28;20030;-80
2021/12/31 10:11:26;;;;;;;21.23;15.18;;;;;;;23.23;31.72;101138.09;5013677;28;20116;-80
2021/12/31 10:13:51;;;;;;;17.23;13.43;;;;;;;23.63;31.72;101141.97;5014215;28;20036;-80
2021/12/31 10:16:20;;;;;;;13.65;11.60;;;;;;;23.60;30.70;101133.50;5013901;28;20342;-80
2021/12/31 10:18:47;;;;;;;10.02;8.40;;;;;;;23.79;29.34;101138.47;5014143;28;20120;-80
2021/12/31 10:21:13;;;;;;;8.00;6.40;;;;;;;23.43;28.66;101138.19;5013439;28;20022;-80
2021/12/31 10:23:39;;;;;;;11.23;7.40;;;;;;;23.48;29.72;101124.31;5014272;28;20085;-80
2021/12/31 10:26:30;;;;;;;12.00;7.32;;;;;;;23.71;29.88;101131.31;5016666;28;20047;-79
2021/12/31 10:28:58;;;;;;;11.73;7.60;;;;;;;23.24;30.42;101097.13;5017546;28;20025;-79
2021/12/31 10:31:24;;;;;;;11.82;7.75;;;;;;;23.88;29.85;101130.22;5015523;28;20039;-77
2021/12/31 10:33:51;;;;;;;13.38;7.65;;;;;;;23.91;29.16;101135.03;5015008;28;20026;-77
2021/12/31 10:36:38;;;;;;;7.13;6.05;;;;;;;23.84;29.32;101120.13;5013502;28;20034;-79
2021/12/31 10:39:19;;;;;;;17.48;5.70;;;;;;;24.14;28.69;101137.06;5014856;28;20029;-79
2021/12/31 10:41:50;;;;;;;7.47;4.85;;;;;;;24.48;28.53;101128.34;5013781;28;20080;-77
2021/12/31 10:44:16;;;;;;;7.53;4.28;;;;;;;24.12;28.40;101128.16;5013778;28;20368;-77
2021/12/31 10:46:42;;;;;;;6.57;4.15;;;;;;;23.97;28.88;101116.25;5012916;28;20018;-72
2021/12/31 10:49:11;;;;;;;4.43;3.28;;;;;;;24.11;28.33;101114.38;5013262;28;20026;-74
2021/12/31 10:51:47;;;;;;;4.55;4.03;;;;;;;24.45;28.88;101115.00;5013057;28;20025;-72
2021/12/31 10:54:46;;;;;;;3.60;3.10;;;;;;;24.20;28.13;101118.28;5014088;28;20032;-72
2021/12/31 10:57:33;;;;;;;6.00;3.45;;;;;;;23.46;29.10;101118.28;5013752;28;20049;-73
2021/12/31 10:59:58;;;;;;;3.20;2.72;;;;;;;22.59;29.35;101111.31;5013094;28;20365;-73
2021/12/31 11:02:24;;;;;;;8.07;3.90;;;;;;;22.95;29.67;101114.53;5012757;28;20022;-73
2021/12/31 11:04:51;;;;;;;3.90;3.00;;;;;;;23.27;28.75;101105.56;5012427;28;20052;-72
2021/12/31 11:07:17;;;;;;;3.88;3.55;;;;;;;23.26;29.51;101094.66;5012928;28;20021;-72
2021/12/31 11:09:43;;;;;;;7.18;4.82;;;;;;;23.20;30.16;101113.41;5013011;28;20372;-73
2021/12/31 11:12:11;;;;;;;5.68;4.63;;;;;;;23.31;30.65;101097.00;5012599;28;20017;-71
2021/12/31 11:14:37;;;;;;;5.65;4.05;;;;;;;23.29;30.74;101110.03;5015334;28;20030;-73
2021/12/31 11:17:03;;;;;;;4.40;4.00;;;;;;;23.37;29.39;101105.84;5014666;28;20092;-73
2021/12/31 11:19:29;;;;;;;4.07;3.30;;;;;;;23.16;28.59;101084.25;5014571;28;20057;-70
2021/12/31 11:21:55;;;;;;;5.47;3.25;;;;;;;22.79;28.92;101100.13;5015938;28;20508;-73
2021/12/31 11:24:34;;;;;;;3.03;2.45;;;;;;;23.58;27.93;101099.03;5017089;28;20056;-72
2021/12/31 11:27:20;;;;;;;2.53;2.30;;;;;;;23.73;27.56;101094.75;5014065;28;20021;-71